Loei, Thailand

12:46 PM ICT on September 05, 2015 (GMT +0700)
Loei | | Change Station
CLOSE
Current Station
Airport
Location: Loei,
Elevation: 833 ft
Nearby Weather Stations

Elev 833 ft 17.45 °N, 101.73 °E | Updated 46 minutes ago

Scattered Clouds
Scattered Clouds
86 °F
Feels Like 97 °F
N
4
Wind Variable Wind from Variable

Today
High -- | Low -- °F
--% Chance of Precip.
Yesterday
High -- | Low -- °F
Precip. -- in
5:59 AM 6:24 PM
Waning Gibbous, 52% visible
Pressure 29.89 in
Visibility 6.2 miles
Clouds Scattered Clouds 2500 ft
Scattered Clouds 12000 ft
Heat Index 97 °F
Dew Point 77 °F
Humidity 74%
Rainfall 0.00 in
Snow Depth Not available.
UV 14 out of 12
Pollen Not available.
Air Quality Not available.
Flu Activity Not available.
METAR VTUL 050500Z VRB03KT 9999 SCT025 SCT120 30/25 Q1012 A2991
Pressure 29.89 in
Visibility 6.2 miles
Clouds Scattered Clouds 2500 ft
Scattered Clouds 12000 ft
Heat Index 97 °F
Dew Point 77 °F
Humidity 74%
Rainfall 0.00 in
Snow Depth Not available.
UV 14 out of 12
Pollen Not available.
Air Quality Not available.
Flu Activity Not available.
METAR VTUL 050500Z VRB03KT 9999 SCT025 SCT120 30/25 Q1012 A2991

10-Day Weather Forecast

×

Almanac

Astronomy

Sep. 05, 2015 Rise Set
Actual Time
Civil Twilight
Nautical Twilight
Astronomical Twilight
Moon
Length of Visible Light
Length of Day
Tomorrow will be .
, % of the Moon is Illuminated

Today's Extremes

Country Highs Country Lows

Community

WunderPhotos

Upload Photos

1,852,428 photos uploaded!

WunderBlogs® & News

Nearby

Air Quality

  Air Quality AQ Index Pollutant
Not available.

Snow Depth

Station Depth Elevation

Earthquake Activity

City Distance Mag. Time & Date
Minimum magnitude displayed is 2.5.

Coastal Water Temperatures

Place Temperature

Stations

Nearby Weather Stations

Station Location Temp. Windchill Dew Point Humidity Wind Precip. Elev Updated Type